Aeroporto :
LOGIN :

Iscrizione | Disclaimer

   EN    FR    IT 

 










Sommario :    VFR   VFR Marginale   IFR   IFR Intensivo   IFR Molto Intensivo
Visibilità : 
Base nubi : 
>= 8 km
>= 3000ft
5 / 8 km
1000 / 3000 ft
1500m / 5 km
500 / 1000 ft
800 / 1500m
200 / 500 ft
< 800m
< 200 ft
Simboli :   Temporali  Nebbia  Neve Forte  Precipitazioni Forti  Vento > 20 kt
SIGMETs :   Varie  Temporali  Ghiacco  Turbolenza  Onda orograficha  Ceneri Vulcaniche






- Altitudine del aeroporto : 231 ft
- Codice IATA : WTN


EGXW - RAF Waddington

ULTIMO METAR :
  • 031250Z 04013KT 9999 -RA FEW018 BKN036 14/10 Q1010 TEMPO SCT018 RMK BLU TEMPO WHT

METARs OBSOLETI :
  • 031220Z 04013KT 9999 -RA SCT016 BKN036 OVC060 14/10 Q1010 TEMPO FEW018 RMK WHT TEMPO BLU
  • 031150Z 03013KT 9999 -RA SCT014 BKN035 OVC060 14/10 Q1010 BECMG SCT016 RMK GRN BECMG WHT
  • 031120Z 03013KT 9999 -RA SCT014 SCT035 OVC060 14/11 Q1010 BECMG SCT015 RMK GRN BECMG WHT
  • 031050Z 03014KT 9999 -RA SCT013 BKN045 OVC060 13/10 Q1010 BECMG SCT015 RMK GRN BECMG WHT
  • 031020Z 03014KT 9999 SCT012 BKN050 OVC060 13/11 Q1010 BECMG SCT015 RMK GRN BECMG WHT
  • 030950Z 03012KT 9999 -RA SCT011 BKN050 OVC060 13/11 Q1010 BECMG SCT015 RMK GRN BECMG WHT

TAF AMD TAF EGXW
Valido dal 03 a 12 ore il 04 a 06 ore UTC


031101Z 0312/0406 01010KT 9999 BKN045
TEMPO 0312/0316 SCT018
PROB30
TEMPO 0312/0316 6000 RA SCT012
BECMG 0316/0319 BKN012
PROB30
TEMPO 0316/0320 7000 RA SCT006
PROB40
TEMPO 0320/0406 FEW012 BKN045



MetMap, La meteo Aeronautica in un colpo d'occhio ! - Copyright ORBIFLY Dicembre 2007 - Disclaimer

ORBIFLY MET'MAP TEAM :

Programmazione e sviluppo : Alexandra Zaïnal
Concezione : Baudouin d'Aumeries
Aiuto per la programmazione : Marc-Olivier Méhu
Supporto tecnico e logistico : Manuel Goepfert
Aiuto per la traduzione : Arnaldo La Scala

Contatto : metmap@orbifly.com




FONTI E CREDITI :

   NOAA